createdAt,value
2022-08-25T00:01:38.035Z,6.35
2022-08-25T00:04:08.434Z,7.85
2022-08-25T00:06:35.978Z,5.57
2022-08-25T00:09:03.366Z,5.90
2022-08-25T00:11:31.422Z,6.10
2022-08-25T00:14:02.765Z,8.15
2022-08-25T00:16:31.568Z,5.28
2022-08-25T00:19:05.414Z,5.55
2022-08-25T00:21:32.408Z,6.40
2022-08-25T00:23:59.770Z,6.40
2022-08-25T00:26:27.730Z,6.28
2022-08-25T00:28:55.217Z,5.95
2022-08-25T00:31:37.741Z,5.60
2022-08-25T00:34:11.786Z,6.60
2022-08-25T00:36:39.279Z,8.55
2022-08-25T00:39:07.603Z,5.65
2022-08-25T00:41:36.311Z,7.03
2022-08-25T00:44:05.788Z,5.88
2022-08-25T00:46:44.129Z,6.60
2022-08-25T00:49:32.684Z,5.95
2022-08-25T00:52:15.276Z,5.75
2022-08-25T00:54:53.753Z,7.43
2022-08-25T00:57:34.540Z,5.20
2022-08-25T01:00:07.462Z,6.23
2022-08-25T01:02:34.435Z,6.70
2022-08-25T01:05:01.374Z,5.47
2022-08-25T01:07:28.317Z,6.55
2022-08-25T01:09:55.730Z,6.72
2022-08-25T01:12:22.849Z,5.90
2022-08-25T01:14:50.149Z,5.80
2022-08-25T01:17:17.177Z,5.88
2022-08-25T01:19:44.216Z,5.32
2022-08-25T01:22:12.101Z,5.80
2022-08-25T01:24:45.493Z,5.97
2022-08-25T01:27:12.686Z,5.63
2022-08-25T01:29:39.784Z,6.97
2022-08-25T01:32:09.032Z,5.35
2022-08-25T01:34:37.606Z,5.88
2022-08-25T01:37:04.861Z,6.50
2022-08-25T01:39:33.920Z,6.47
2022-08-25T01:42:04.751Z,6.65
2022-08-25T01:44:32.443Z,5.45
2022-08-25T01:46:59.367Z,6.45
2022-08-25T01:49:26.281Z,6.57
2022-08-25T01:52:22.541Z,7.88
2022-08-25T01:54:49.478Z,6.25
2022-08-25T01:57:16.597Z,7.80
2022-08-25T01:59:44.881Z,6.05
2022-08-25T02:02:11.929Z,5.60
2022-08-25T02:04:39.532Z,6.18
2022-08-25T02:07:08.497Z,6.70
2022-08-25T02:09:36.284Z,8.57
2022-08-25T02:12:03.506Z,7.90
2022-08-25T02:14:30.457Z,8.82
2022-08-25T02:16:57.513Z,9.57
2022-08-25T02:19:24.680Z,8.98
2022-08-25T02:21:51.699Z,9.00
2022-08-25T02:24:18.844Z,9.07
2022-08-25T02:26:45.810Z,7.90
2022-08-25T02:29:13.049Z,7.43
2022-08-25T02:31:40.611Z,9.70
2022-08-25T02:34:07.770Z,8.40
2022-08-25T02:36:34.869Z,8.05
2022-08-25T02:39:02.029Z,7.95
2022-08-25T02:41:31.839Z,8.73
2022-08-25T02:44:02.338Z,8.68
2022-08-25T02:46:29.459Z,9.35
2022-08-25T02:48:56.509Z,8.27
2022-08-25T02:51:24.258Z,8.27
2022-08-25T02:53:51.141Z,9.13
2022-08-25T02:56:18.857Z,8.93
2022-08-25T02:58:46.232Z,9.32
2022-08-25T03:01:13.414Z,10.10
2022-08-25T03:03:40.646Z,9.02
2022-08-25T03:06:09.421Z,8.57
2022-08-25T03:08:37.055Z,10.95
2022-08-25T03:11:05.096Z,8.60
2022-08-25T03:13:32.334Z,10.02
2022-08-25T03:16:02.976Z,10.82
2022-08-25T03:18:30.265Z,10.80
2022-08-25T03:20:57.846Z,10.02
2022-08-25T03:23:24.907Z,9.82
2022-08-25T03:26:12.239Z,9.50
2022-08-25T03:28:39.171Z,8.52
2022-08-25T03:31:06.236Z,9.15
2022-08-25T03:33:33.125Z,10.10
2022-08-25T03:36:00.085Z,10.23
2022-08-25T03:38:27.442Z,9.52
2022-08-25T03:40:54.499Z,9.45
2022-08-25T03:43:21.432Z,9.48
2022-08-25T03:45:48.489Z,9.35
2022-08-25T03:48:16.138Z,9.75
2022-08-25T03:50:51.838Z,8.57
2022-08-25T03:53:19.840Z,9.48
2022-08-25T03:55:46.906Z,10.68
2022-08-25T03:58:14.153Z,9.05
2022-08-25T04:00:41.018Z,10.48
2022-08-25T04:03:07.991Z,9.57
2022-08-25T04:05:35.337Z,10.30
2022-08-25T04:08:02.478Z,10.15
2022-08-25T04:10:29.727Z,10.98
2022-08-25T04:12:57.331Z,11.63
2022-08-25T04:15:30.163Z,12.27
2022-08-25T04:18:03.750Z,11.18
2022-08-25T04:20:30.759Z,12.13
2022-08-25T04:23:00.638Z,9.73
2022-08-25T04:25:27.643Z,12.63
2022-08-25T04:27:55.299Z,12.85
2022-08-25T04:30:22.413Z,10.10
2022-08-25T04:32:49.674Z,9.43
2022-08-25T04:35:16.741Z,9.45
2022-08-25T04:37:43.634Z,13.55
2022-08-25T04:40:11.403Z,11.68
2022-08-25T04:42:39.346Z,12.27
2022-08-25T04:45:06.877Z,13.77
2022-08-25T04:47:39.483Z,13.02
2022-08-25T04:50:07.361Z,12.70
2022-08-25T04:52:34.295Z,14.70
2022-08-25T04:55:01.255Z,16.65
2022-08-25T04:57:28.332Z,14.35
2022-08-25T04:59:55.642Z,14.23
2022-08-25T05:02:25.202Z,14.75
2022-08-25T05:04:52.336Z,15.93
2022-08-25T05:07:19.292Z,14.32
2022-08-25T05:09:46.249Z,12.32
2022-08-25T05:12:13.425Z,17.83
2022-08-25T05:14:40.349Z,17.83
2022-08-25T05:17:07.882Z,11.90
2022-08-25T05:19:36.135Z,14.30
2022-08-25T05:22:03.109Z,13.30
2022-08-25T05:24:29.989Z,10.85
2022-08-25T05:26:56.990Z,11.27
2022-08-25T05:29:23.865Z,11.93
2022-08-25T05:31:51.118Z,14.27
2022-08-25T05:34:19.016Z,13.23
2022-08-25T05:36:46.390Z,14.82
2022-08-25T05:39:13.295Z,12.85
2022-08-25T05:41:40.224Z,12.85
2022-08-25T05:44:07.198Z,12.80
2022-08-25T05:46:34.098Z,14.73
2022-08-25T05:49:01.086Z,15.45
2022-08-25T05:51:28.025Z,14.48
2022-08-25T05:53:55.040Z,13.98
2022-08-25T05:56:21.964Z,14.25
2022-08-25T05:58:48.880Z,13.70
2022-08-25T06:01:43.397Z,14.50
2022-08-25T06:04:12.663Z,13.45
2022-08-25T06:06:39.746Z,16.65
2022-08-25T06:09:08.762Z,16.27
2022-08-25T06:11:37.350Z,16.08
2022-08-25T06:14:04.778Z,15.82
2022-08-25T06:16:31.903Z,17.98
2022-08-25T06:18:59.093Z,19.65
2022-08-25T06:21:26.002Z,18.15
2022-08-25T06:23:52.918Z,18.13
2022-08-25T06:26:21.302Z,19.90
2022-08-25T06:28:50.082Z,18.77
2022-08-25T06:31:17.272Z,19.27
2022-08-25T06:33:44.328Z,18.90
2022-08-25T06:36:11.227Z,20.75
2022-08-25T06:38:38.170Z,20.65
2022-08-25T06:41:05.839Z,20.30
2022-08-25T06:43:33.284Z,19.88
2022-08-25T06:46:15.364Z,18.45
2022-08-25T06:48:42.325Z,21.63
2022-08-25T06:51:14.121Z,20.48
2022-08-25T06:56:08.551Z,18.77
2022-08-25T06:58:35.799Z,16.38
2022-08-25T07:01:20.894Z,17.85
2022-08-25T07:03:48.420Z,15.13
2022-08-25T07:06:18.539Z,15.63
2022-08-25T07:08:46.588Z,16.38
2022-08-25T07:11:16.407Z,16.70
2022-08-25T07:13:44.613Z,18.08
2022-08-25T07:16:11.667Z,15.32
2022-08-25T07:18:38.678Z,16.77
2022-08-25T07:21:05.866Z,18.42
2022-08-25T07:23:36.555Z,16.40
2022-08-25T07:29:01.995Z,17.52
2022-08-25T07:31:30.275Z,20.48
2022-08-25T07:34:16.670Z,17.85
2022-08-25T07:36:44.293Z,17.42
2022-08-25T07:39:11.382Z,17.85
2022-08-25T07:41:39.695Z,17.40
2022-08-25T07:44:06.918Z,17.10
2022-08-25T07:46:34.192Z,17.05
2022-08-25T07:49:01.858Z,17.00
2022-08-25T07:51:28.907Z,15.13
2022-08-25T07:53:55.899Z,16.95
2022-08-25T07:56:23.797Z,16.63
2022-08-25T07:58:50.712Z,18.38
2022-08-25T08:01:18.997Z,13.00
2022-08-25T08:03:51.232Z,14.45
2022-08-25T08:06:20.535Z,14.80
2022-08-25T08:08:49.276Z,15.52
2022-08-25T08:11:20.621Z,16.92
2022-08-25T08:13:47.910Z,18.30
2022-08-25T08:16:18.646Z,13.88
2022-08-25T08:18:46.004Z,15.07
2022-08-25T08:21:19.295Z,13.52
2022-08-25T08:23:48.504Z,14.55
2022-08-25T08:26:16.842Z,13.38
2022-08-25T08:28:43.978Z,12.95
2022-08-25T08:31:11.036Z,13.32
2022-08-25T08:33:40.872Z,16.42
2022-08-25T08:36:09.799Z,16.23
2022-08-25T08:38:37.123Z,14.30
2022-08-25T08:42:11.681Z,19.05
2022-08-25T08:44:52.750Z,12.68
2022-08-25T08:47:38.514Z,13.27
2022-08-25T08:50:22.123Z,10.70
2022-08-25T08:53:02.934Z,14.13
2022-08-25T08:55:35.976Z,12.20
2022-08-25T08:58:07.585Z,12.20
2022-08-25T09:00:51.853Z,14.55
2022-08-25T09:03:29.755Z,14.40
2022-08-25T09:05:58.685Z,14.35
2022-08-25T09:08:26.602Z,14.90
2022-08-25T09:11:10.935Z,14.77
2022-08-25T09:13:55.319Z,14.25
2022-08-25T09:16:55.629Z,12.70
2022-08-25T09:19:32.088Z,14.00
2022-08-25T09:22:34.011Z,13.75
2022-08-25T09:25:22.101Z,14.45
2022-08-25T09:28:12.546Z,12.50
2022-08-25T09:31:09.633Z,11.45
2022-08-25T09:33:36.597Z,12.98
2022-08-25T09:36:05.920Z,11.23
2022-08-25T09:38:33.434Z,13.45
2022-08-25T09:41:01.474Z,13.35
2022-08-25T09:43:34.256Z,17.05
2022-08-25T09:46:18.092Z,14.60
2022-08-25T09:48:56.937Z,13.88
2022-08-25T09:51:38.333Z,16.25
2022-08-25T09:54:13.120Z,11.40
2022-08-25T09:57:01.854Z,13.43
2022-08-25T09:59:34.870Z,11.43
2022-08-25T10:02:05.596Z,11.27
2022-08-25T10:04:37.151Z,10.55
2022-08-25T10:07:28.409Z,9.98
2022-08-25T10:10:03.226Z,10.18
2022-08-25T10:12:36.797Z,10.10
2022-08-25T10:15:29.449Z,8.98
2022-08-25T10:18:25.712Z,8.00
2022-08-25T10:21:12.014Z,7.70
2022-08-25T10:23:51.573Z,8.75
2022-08-25T10:26:36.834Z,8.65
2022-08-25T10:29:35.761Z,8.38
2022-08-25T10:32:12.454Z,8.05
2022-08-25T10:34:44.419Z,6.97
2022-08-25T10:37:24.142Z,6.68
2022-08-25T10:40:21.824Z,6.80
2022-08-25T10:43:09.158Z,8.52
2022-08-25T10:45:45.873Z,8.93
2022-08-25T10:48:34.883Z,9.20
2022-08-25T10:51:43.829Z,7.80
2022-08-25T10:54:22.534Z,9.30
2022-08-25T10:57:13.167Z,8.10
2022-08-25T10:59:59.027Z,7.80
2022-08-25T11:03:04.079Z,6.90
2022-08-25T11:05:42.604Z,6.95
2022-08-25T11:08:28.448Z,7.65
2022-08-25T11:11:09.268Z,8.02
2022-08-25T11:13:50.831Z,7.45
2022-08-25T11:16:34.002Z,7.05
2022-08-25T11:19:19.845Z,7.25
2022-08-25T11:22:05.972Z,6.32
2022-08-25T11:24:51.520Z,6.28
2022-08-25T11:27:24.629Z,6.90
2022-08-25T11:30:12.577Z,6.95
2022-08-25T11:32:39.795Z,6.60
2022-08-25T11:35:09.223Z,5.53
2022-08-25T11:37:45.679Z,6.10
2022-08-25T11:40:28.867Z,7.57
2022-08-25T11:42:59.799Z,6.15
2022-08-25T11:45:40.830Z,7.30
2022-08-25T11:48:42.408Z,6.15
2022-08-25T11:51:11.208Z,7.47
2022-08-25T11:53:42.541Z,7.40
2022-08-25T11:56:32.562Z,7.30
2022-08-25T11:59:02.419Z,5.93
2022-08-25T12:01:43.181Z,5.45
2022-08-25T12:04:44.707Z,5.93
2022-08-25T12:09:51.346Z,5.28
2022-08-25T12:12:31.327Z,6.35
2022-08-25T12:15:14.659Z,5.28
2022-08-25T12:17:41.683Z,6.63
2022-08-25T12:20:08.708Z,6.88
2022-08-25T12:22:35.576Z,5.95
2022-08-25T12:25:24.507Z,6.72
2022-08-25T12:28:17.538Z,6.13
2022-08-25T12:30:52.993Z,5.55
2022-08-25T12:33:34.971Z,5.90
2022-08-25T12:36:03.879Z,5.90
2022-08-25T12:38:39.847Z,7.13
2022-08-25T12:41:14.901Z,6.97
2022-08-25T12:43:44.110Z,6.28
2022-08-25T12:46:20.133Z,4.80
2022-08-25T12:48:57.827Z,5.15
2022-08-25T12:51:48.834Z,5.05
2022-08-25T12:54:36.427Z,5.53
2022-08-25T12:57:41.953Z,4.90
2022-08-25T13:00:21.299Z,4.10
2022-08-25T13:03:02.419Z,5.05
2022-08-25T13:05:48.082Z,4.80
2022-08-25T13:08:37.053Z,5.15
2022-08-25T13:11:04.786Z,4.22
2022-08-25T13:13:31.834Z,5.40
2022-08-25T13:16:04.829Z,4.93
2022-08-25T13:18:33.580Z,8.35
2022-08-25T13:21:29.116Z,5.35
2022-08-25T13:24:04.681Z,5.43
2022-08-25T13:26:34.445Z,5.47
2022-08-25T13:29:11.525Z,5.78
2022-08-25T13:31:49.962Z,6.45
2022-08-25T13:34:24.157Z,4.93
2022-08-25T13:37:32.401Z,4.82
2022-08-25T13:40:28.949Z,4.50
2022-08-25T13:43:01.256Z,4.00
2022-08-25T13:45:31.668Z,3.92
2022-08-25T13:47:58.990Z,5.03
2022-08-25T13:50:26.374Z,4.43
2022-08-25T13:52:55.697Z,5.60
2022-08-25T13:55:51.217Z,5.20
2022-08-25T13:58:44.860Z,4.70
2022-08-25T14:01:47.721Z,5.32
2022-08-25T14:04:32.927Z,5.07
2022-08-25T14:07:19.460Z,5.07
2022-08-25T14:09:52.348Z,4.40
2022-08-25T14:12:41.567Z,4.00
2022-08-25T14:15:17.721Z,5.00
2022-08-25T14:18:09.549Z,5.00
2022-08-25T14:20:45.450Z,4.57
2022-08-25T14:23:16.192Z,3.33
2022-08-25T14:25:46.435Z,4.15
2022-08-25T14:51:22.872Z,4.60
2022-08-25T14:53:49.808Z,5.13
2022-08-25T14:56:17.778Z,4.07
2022-08-25T14:58:51.014Z,4.13
2022-08-25T15:01:29.474Z,4.10
2022-08-25T15:04:11.697Z,4.53
2022-08-25T15:06:38.971Z,4.68
2022-08-25T15:09:08.035Z,3.83
2022-08-25T15:11:35.346Z,5.63
2022-08-25T15:14:02.384Z,3.92
2022-08-25T15:16:37.911Z,4.38
2022-08-25T15:19:14.493Z,4.43
2022-08-25T15:21:43.609Z,4.45
2022-08-25T15:24:10.727Z,5.35
2022-08-25T15:29:23.188Z,5.45
2022-08-25T15:31:50.380Z,5.05
2022-08-25T15:34:17.549Z,6.13
2022-08-25T15:36:45.539Z,5.95
2022-08-25T15:39:15.011Z,7.18
2022-08-25T15:42:00.420Z,5.57
2022-08-25T15:44:29.639Z,7.13
2022-08-25T15:46:58.636Z,6.53
2022-08-25T15:49:26.315Z,5.80
2022-08-25T15:51:56.784Z,6.28
2022-08-25T15:54:26.956Z,6.93
2022-08-25T15:56:54.999Z,6.18
2022-08-25T15:59:21.937Z,6.00
2022-08-25T16:01:49.226Z,6.30
2022-08-25T16:04:16.437Z,5.72
2022-08-25T16:06:44.785Z,6.60
2022-08-25T16:09:12.199Z,5.57
2022-08-25T16:11:39.237Z,5.85
2022-08-25T16:14:06.319Z,5.88
2022-08-25T16:16:33.596Z,5.30
2022-08-25T16:19:01.536Z,5.57
2022-08-25T16:21:31.113Z,5.72
2022-08-25T16:24:02.601Z,6.60
2022-08-25T16:26:32.506Z,5.43
2022-08-25T16:28:59.483Z,4.82
2022-08-25T16:31:26.552Z,6.30
2022-08-25T16:33:56.169Z,6.13
2022-08-25T16:36:27.194Z,6.63
2022-08-25T16:38:56.452Z,6.53
2022-08-25T16:41:34.144Z,6.95
2022-08-25T16:44:04.067Z,6.30
2022-08-25T16:46:31.173Z,7.28
2022-08-25T16:49:02.614Z,8.18
2022-08-25T16:51:32.400Z,7.50
2022-08-25T16:54:22.377Z,8.20
2022-08-25T16:56:54.812Z,7.70
2022-08-25T16:59:22.274Z,9.25
2022-08-25T17:01:50.960Z,9.95
2022-08-25T17:04:17.876Z,10.07
2022-08-25T17:06:49.402Z,10.68
2022-08-25T17:09:22.820Z,12.02
2022-08-25T17:11:54.091Z,12.75
2022-08-25T17:14:21.596Z,17.08
2022-08-25T17:16:48.704Z,12.23
2022-08-25T17:19:17.768Z,13.10
2022-08-25T17:21:46.213Z,11.95
2022-08-25T17:24:13.930Z,15.55
2022-08-25T17:26:41.733Z,13.85
2022-08-25T17:29:09.540Z,14.63
2022-08-25T17:31:40.100Z,14.10
2022-08-25T17:34:12.109Z,14.02
2022-08-25T17:36:43.570Z,13.52
2022-08-25T17:39:11.692Z,13.10
2022-08-25T17:41:38.719Z,12.45
2022-08-25T17:44:10.279Z,14.45
2022-08-25T17:46:38.456Z,17.63
2022-08-25T17:49:08.877Z,19.33
2022-08-25T17:51:35.809Z,18.52
2022-08-25T17:54:02.745Z,14.43
2022-08-25T17:56:30.003Z,16.40
2022-08-25T17:58:57.205Z,13.57
2022-08-25T18:01:29.025Z,13.15
2022-08-25T18:03:56.601Z,13.83
2022-08-25T18:06:23.585Z,14.60
2022-08-25T18:08:53.674Z,14.38
2022-08-25T18:11:26.464Z,15.63
2022-08-25T18:13:54.055Z,14.35
2022-08-25T18:16:21.385Z,14.70
2022-08-25T18:18:48.740Z,15.60
2022-08-25T18:21:16.507Z,13.15
2022-08-25T18:23:43.480Z,14.15
2022-08-25T18:26:13.053Z,14.30
2022-08-25T18:28:40.280Z,14.32
2022-08-25T18:31:12.074Z,14.55
2022-08-25T18:33:42.026Z,14.00
2022-08-25T18:36:09.556Z,14.95
2022-08-25T18:38:57.787Z,14.25
2022-08-25T18:41:25.773Z,14.85
2022-08-25T18:43:53.246Z,15.07
2022-08-25T18:46:22.797Z,15.05
2022-08-25T18:48:52.978Z,13.77
2022-08-25T18:51:22.853Z,13.18
2022-08-25T18:53:51.195Z,14.30
2022-08-25T18:56:22.449Z,16.43
2022-08-25T18:58:49.440Z,15.10
2022-08-25T19:01:17.036Z,14.63
2022-08-25T19:03:45.408Z,13.20
2022-08-25T19:06:12.280Z,14.93
2022-08-25T19:08:41.940Z,15.50
2022-08-25T19:11:09.890Z,14.20
2022-08-25T19:13:37.811Z,16.13
2022-08-25T19:16:32.112Z,15.32
2022-08-25T19:19:01.065Z,14.45
2022-08-25T19:21:31.248Z,13.23
2022-08-25T19:23:58.231Z,16.63
2022-08-25T19:26:25.646Z,14.93
2022-08-25T19:28:52.727Z,13.68
2022-08-25T19:31:24.056Z,15.52
2022-08-25T19:33:52.503Z,13.02
2022-08-25T19:36:21.376Z,13.43
2022-08-25T19:38:51.769Z,13.27
2022-08-25T19:41:19.470Z,14.82
2022-08-25T19:43:55.735Z,15.68
2022-08-25T19:46:33.336Z,15.25
2022-08-25T19:49:08.800Z,13.43
2022-08-25T19:51:44.900Z,15.32
2022-08-25T19:54:13.759Z,16.00
2022-08-25T19:56:43.512Z,16.00
2022-08-25T19:59:34.177Z,13.75
2022-08-25T20:02:08.731Z,15.98
2022-08-25T20:04:37.775Z,12.75
2022-08-25T20:07:04.715Z,13.23
2022-08-25T20:09:39.099Z,13.68
2022-08-25T20:12:08.664Z,13.05
2022-08-25T20:14:36.508Z,14.35
2022-08-25T20:17:04.024Z,13.30
2022-08-25T20:19:41.669Z,14.75
2022-08-25T20:22:11.229Z,14.90
2022-08-25T20:24:56.240Z,14.73
2022-08-25T20:27:27.281Z,15.90
2022-08-25T20:29:54.357Z,15.20
2022-08-25T20:32:21.311Z,15.55
2022-08-25T20:34:48.596Z,15.98
2022-08-25T20:37:16.852Z,14.07
2022-08-25T20:39:46.742Z,16.25
2022-08-25T20:42:13.981Z,14.77
2022-08-25T20:44:42.237Z,13.95
2022-08-25T20:47:10.394Z,16.00
2022-08-25T20:49:39.202Z,13.10
2022-08-25T20:52:06.679Z,14.90
2022-08-25T20:54:33.709Z,16.73
2022-08-25T20:57:01.010Z,14.88
2022-08-25T20:59:29.486Z,15.40
2022-08-25T21:01:56.690Z,15.77
2022-08-25T21:04:25.374Z,14.25
2022-08-25T21:06:52.909Z,16.27
2022-08-25T21:09:21.435Z,15.45
2022-08-25T21:11:48.355Z,13.90
2022-08-25T21:14:16.748Z,15.18
2022-08-25T21:16:47.110Z,12.48
2022-08-25T21:19:16.048Z,12.27
2022-08-25T21:21:43.016Z,12.25
2022-08-25T21:24:10.312Z,12.52
2022-08-25T21:26:37.715Z,13.15
2022-08-25T21:29:17.109Z,14.70
2022-08-25T21:31:44.212Z,13.57
2022-08-25T21:34:11.885Z,14.05
2022-08-25T21:36:38.836Z,12.75
2022-08-25T21:39:05.963Z,11.77
2022-08-25T21:41:33.781Z,12.82
2022-08-25T21:44:01.422Z,13.70
2022-08-25T21:46:30.468Z,12.75
2022-08-25T21:48:58.420Z,12.23
2022-08-25T21:51:28.747Z,11.57
2022-08-25T21:54:10.772Z,13.02
2022-08-25T21:56:59.752Z,12.10
2022-08-25T21:59:32.475Z,10.27
2022-08-25T22:02:01.192Z,12.90
2022-08-25T22:04:28.285Z,11.90
2022-08-25T22:06:55.795Z,11.70
2022-08-25T22:09:25.071Z,12.52
2022-08-25T22:11:54.590Z,10.80
2022-08-25T22:14:21.959Z,11.93
2022-08-25T22:16:48.804Z,11.80
2022-08-25T22:19:15.748Z,12.45
2022-08-25T22:21:43.360Z,10.27
2022-08-25T22:24:10.386Z,12.13
2022-08-25T22:26:37.616Z,11.75
2022-08-25T22:29:05.254Z,11.68
2022-08-25T22:31:33.619Z,12.55
2022-08-25T22:34:00.938Z,10.75
2022-08-25T22:36:34.643Z,10.77
2022-08-25T22:39:02.291Z,12.10
2022-08-25T22:41:29.928Z,10.05
2022-08-25T22:43:57.728Z,12.40
2022-08-25T22:46:25.715Z,11.95
2022-08-25T22:48:55.465Z,10.85
2022-08-25T22:51:27.667Z,11.35
2022-08-25T22:56:29.776Z,10.70
2022-08-25T22:59:01.221Z,11.77
2022-08-25T23:01:28.199Z,12.15
2022-08-25T23:03:55.050Z,9.63
2022-08-25T23:06:24.693Z,13.73
2022-08-25T23:08:53.701Z,10.48
2022-08-25T23:11:21.163Z,12.18
2022-08-25T23:13:48.111Z,10.20
2022-08-25T23:16:15.637Z,12.35
2022-08-25T23:18:44.656Z,12.80
2022-08-25T23:21:38.117Z,11.45
2022-08-25T23:24:10.765Z,10.77
2022-08-25T23:26:42.553Z,11.65
2022-08-25T23:29:18.401Z,13.07
2022-08-25T23:31:46.386Z,10.93
2022-08-25T23:34:13.498Z,12.63
2022-08-25T23:36:40.508Z,11.48
2022-08-25T23:39:07.645Z,13.57
2022-08-25T23:41:36.817Z,13.52
2022-08-25T23:44:05.395Z,12.50
2022-08-25T23:46:33.118Z,12.95
2022-08-25T23:49:00.212Z,12.77
2022-08-25T23:51:28.666Z,13.35
2022-08-25T23:53:55.852Z,12.15
2022-08-25T23:56:25.989Z,12.25
2022-08-25T23:58:53.115Z,12.05
